Humberside Airport


Codes: EGNJ/HUY
Name: Humberside Airport
City: Grimsby
Country: United Kingdom
Elevation: 121 ft.
Website:
Wikipedia:

Photos at Humberside Airport


   Photos courtesy of SpottingLog. You can add your own sightings and photos by signing up for a free trial today.



No photos found.

Weather at Humberside Airport


Time (UTC)DescriptionTempratureWindCloud coverageVisibilityPressureHumidity
19-Apr-2024 03:00Overcast Clouds10°C16 mph, W100%10000m1013hPa56%
19-Apr-2024 06:00Broken Clouds9°C13 mph, NW84%10000m1013hPa66%
19-Apr-2024 09:00Light Rain9°C18 mph, NW77%10000m1014hPa74%
19-Apr-2024 12:00Light Rain9°C18 mph, N77%10000m1017hPa73%
19-Apr-2024 15:00Broken Clouds9°C20 mph, N84%10000m1019hPa55%
19-Apr-2024 18:00Broken Clouds6°C16 mph, N68%10000m1022hPa64%
19-Apr-2024 21:00Clear Sky4°C13 mph, N7%10000m1025hPa65%
20-Apr-2024 00:00Clear Sky2°C9 mph, NW8%10000m1026hPa76%
20-Apr-2024 03:00Few Clouds1°C7 mph, NW24%10000m1027hPa87%
20-Apr-2024 06:00Scattered Clouds2°C9 mph, NW44%10000m1028hPa84%
20-Apr-2024 09:00Broken Clouds7°C13 mph, N71%10000m1029hPa66%
20-Apr-2024 12:00Overcast Clouds10°C13 mph, N85%10000m1030hPa53%
20-Apr-2024 15:00Broken Clouds9°C13 mph, N65%10000m1030hPa54%
20-Apr-2024 18:00Scattered Clouds6°C11 mph, N46%10000m1031hPa69%
20-Apr-2024 21:00Scattered Clouds2°C4 mph, N35%10000m1032hPa85%
21-Apr-2024 00:00Scattered Clouds1°C4 mph, NW41%10000m1032hPa89%
21-Apr-2024 03:00Overcast Clouds2°C4 mph, NW93%10000m1032hPa88%
21-Apr-2024 06:00Overcast Clouds3°C4 mph, NW97%10000m1032hPa83%
21-Apr-2024 09:00Overcast Clouds8°C9 mph, N100%10000m1033hPa65%
21-Apr-2024 12:00Overcast Clouds9°C11 mph, NE98%10000m1033hPa60%
21-Apr-2024 15:00Overcast Clouds9°C11 mph, NE90%10000m1033hPa60%
21-Apr-2024 18:00Broken Clouds7°C9 mph, NE65%10000m1033hPa72%
21-Apr-2024 21:00Clear Sky3°C4 mph, NE9%10000m1034hPa89%
22-Apr-2024 00:00Few Clouds2°C2 mph, N21%10000m1033hPa89%
22-Apr-2024 03:00Overcast Clouds3°C2 mph, NW92%10000m1033hPa88%
22-Apr-2024 06:00Overcast Clouds4°C2 mph, W96%10000m1032hPa81%
22-Apr-2024 09:00Light Rain5°C2 mph, W100%10000m1031hPa83%
22-Apr-2024 12:00Light Rain4°C4 mph, SW100%10000m1029hPa92%
22-Apr-2024 15:00Light Rain4°C7 mph, SW100%10000m1027hPa96%
22-Apr-2024 18:00Light Rain4°C2 mph, SW100%10000m1025hPa98%
22-Apr-2024 21:00Light Rain6°C7 mph, NW100%10000m1024hPa99%
23-Apr-2024 00:00Overcast Clouds6°C11 mph, NW97%10000m1023hPa96%
23-Apr-2024 03:00Overcast Clouds4°C11 mph, NW91%10000m1022hPa96%
23-Apr-2024 06:00Overcast Clouds5°C11 mph, N95%10000m1022hPa93%
23-Apr-2024 09:00Broken Clouds8°C16 mph, N81%10000m1022hPa76%
23-Apr-2024 12:00Light Rain9°C13 mph, NE88%10000m1022hPa62%
23-Apr-2024 15:00Overcast Clouds9°C13 mph, NE99%10000m1022hPa60%
23-Apr-2024 18:00Overcast Clouds7°C9 mph, N99%10000m1022hPa74%
23-Apr-2024 21:00Overcast Clouds4°C4 mph, N100%10000m1021hPa84%
24-Apr-2024 00:00Overcast Clouds3°C7 mph, NW100%10000m1020hPa87%